createdAt,value
2024-04-23T00:03:45.122Z,90.59
2024-04-23T00:08:47.153Z,91.49
2024-04-23T00:13:49.191Z,91.35
2024-04-23T00:18:51.469Z,91.80
2024-04-23T00:23:53.570Z,92.87
2024-04-23T00:28:55.607Z,93.20
2024-04-23T00:33:57.616Z,94.07
2024-04-23T00:38:59.668Z,94.99
2024-04-23T00:44:01.738Z,94.91
2024-04-23T00:49:04.110Z,95.65
2024-04-23T00:54:07.652Z,96.30
2024-04-23T00:59:17.916Z,96.36
2024-04-23T01:04:19.991Z,96.79
2024-04-23T01:09:22.399Z,97.27
2024-04-23T01:14:24.469Z,97.38
2024-04-23T01:19:41.788Z,98.87
2024-04-23T01:25:01.100Z,99.33
2024-04-23T01:30:05.530Z,99.19
2024-04-23T01:35:11.820Z,100.00
2024-04-23T01:40:14.322Z,100.00
2024-04-23T01:45:17.506Z,100.00
2024-04-23T01:50:19.759Z,100.00
2024-04-23T01:55:21.864Z,100.00
2024-04-23T02:00:25.157Z,100.00
2024-04-23T02:05:28.309Z,100.00
2024-04-23T02:10:30.829Z,100.00
2024-04-23T02:15:32.810Z,100.00
2024-04-23T02:20:34.843Z,100.00
2024-04-23T02:25:36.916Z,100.00
2024-04-23T02:30:39.156Z,100.00
2024-04-23T02:35:41.231Z,100.00
2024-04-23T02:40:43.271Z,100.00
2024-04-23T02:45:45.396Z,100.00
2024-04-23T02:50:47.398Z,100.00
2024-04-23T02:55:49.567Z,100.00
2024-04-23T03:00:51.705Z,100.00
2024-04-23T03:05:53.715Z,100.00
2024-04-23T03:10:55.768Z,100.00
2024-04-23T03:15:58.230Z,100.00
2024-04-23T03:21:00.272Z,100.00
2024-04-23T03:26:02.407Z,100.00
2024-04-23T03:31:04.697Z,100.00
2024-04-23T03:36:07.932Z,100.00
2024-04-23T03:41:09.919Z,100.00
2024-04-23T03:46:12.024Z,100.00
2024-04-23T03:51:14.016Z,100.00
2024-04-23T03:56:16.045Z,100.00
2024-04-23T04:01:18.075Z,100.00
2024-04-23T04:06:20.510Z,100.00
2024-04-23T04:11:22.646Z,100.00
2024-04-23T04:16:24.844Z,100.00
2024-04-23T04:21:26.826Z,100.00
2024-04-23T04:26:28.884Z,100.00
2024-04-23T04:31:30.932Z,100.00
2024-04-23T04:36:33.001Z,100.00
2024-04-23T04:41:35.101Z,100.00
2024-04-23T04:46:37.262Z,100.00
2024-04-23T04:51:39.300Z,100.00
2024-04-23T04:56:41.352Z,100.00
2024-04-23T05:01:43.377Z,100.00
2024-04-23T05:06:45.786Z,100.00
2024-04-23T05:11:48.000Z,100.00
2024-04-23T05:16:50.031Z,100.00
2024-04-23T05:21:52.102Z,100.00
2024-04-23T05:26:54.104Z,100.00
2024-04-23T05:32:14.992Z,100.00
2024-04-23T05:37:17.010Z,100.00
2024-04-23T05:42:19.876Z,100.00
2024-04-23T05:47:22.099Z,100.00
2024-04-23T05:53:20.738Z,100.00
2024-04-23T05:58:22.825Z,100.00
2024-04-23T06:03:24.843Z,100.00
2024-04-23T06:08:27.615Z,100.00
2024-04-23T06:13:29.761Z,100.00
2024-04-23T06:18:31.847Z,100.00
2024-04-23T06:23:34.047Z,100.00
2024-04-23T06:28:36.788Z,99.43
2024-04-23T06:33:39.095Z,96.83
2024-04-23T06:38:41.189Z,96.04
2024-04-23T06:43:43.257Z,92.78
2024-04-23T06:48:45.415Z,88.58
2024-04-23T06:53:47.447Z,86.94
2024-04-23T06:58:49.486Z,87.18
2024-04-23T07:03:51.597Z,86.45
2024-04-23T07:08:56.368Z,87.58
2024-04-23T07:13:58.668Z,83.83
2024-04-23T07:19:02.440Z,85.58
2024-04-23T07:24:04.960Z,83.23
2024-04-23T07:29:07.765Z,79.08
2024-04-23T07:34:09.876Z,75.31
2024-04-23T07:39:14.339Z,72.51
2024-04-23T07:44:17.532Z,74.75
2024-04-23T07:49:19.561Z,69.49
2024-04-23T07:54:21.632Z,66.17
2024-04-23T07:59:23.730Z,66.35
2024-04-23T08:04:25.744Z,63.69
2024-04-23T08:09:27.760Z,60.26
2024-04-23T08:14:29.791Z,62.21
2024-04-23T08:19:31.858Z,58.83
2024-04-23T08:24:33.934Z,60.69
2024-04-23T08:29:36.007Z,57.54
2024-04-23T08:34:38.304Z,53.92
2024-04-23T08:39:40.317Z,56.36
2024-04-23T08:44:44.609Z,56.35
2024-04-23T08:49:48.054Z,53.75
2024-04-23T08:54:50.142Z,50.89
2024-04-23T08:59:52.583Z,49.51
2024-04-23T09:04:59.312Z,48.29
2024-04-23T09:10:04.261Z,48.27
2024-04-23T09:15:07.456Z,49.20
2024-04-23T09:20:13.551Z,50.66
2024-04-23T09:25:16.354Z,53.42
2024-04-23T09:30:31.206Z,53.98
2024-04-23T09:35:33.338Z,53.55
2024-04-23T09:40:40.672Z,52.76
2024-04-23T09:45:43.469Z,50.83
2024-04-23T09:50:45.941Z,50.55
2024-04-23T09:56:03.697Z,49.09
2024-04-23T10:01:07.216Z,52.03
2024-04-23T10:06:19.139Z,47.92
2024-04-23T10:11:32.018Z,50.99
2024-04-23T10:16:45.978Z,49.36
2024-04-23T10:21:48.241Z,49.16
2024-04-23T10:26:50.879Z,49.00
2024-04-23T10:31:53.082Z,50.89
2024-04-23T10:36:56.370Z,48.77
2024-04-23T10:42:00.809Z,46.82
2024-04-23T10:47:03.619Z,47.73
2024-04-23T10:52:06.674Z,49.71
2024-04-23T10:57:09.103Z,47.68
2024-04-23T11:02:13.280Z,49.02
2024-04-23T11:07:27.100Z,44.67
2024-04-23T11:12:33.035Z,44.44
2024-04-23T11:17:42.094Z,40.68
2024-04-23T11:22:54.719Z,46.34
2024-04-23T11:27:57.068Z,45.84
2024-04-23T11:32:59.233Z,43.26
2024-04-23T11:38:01.320Z,43.25
2024-04-23T11:43:03.479Z,43.39
2024-04-23T11:48:06.011Z,44.00
2024-04-23T11:53:08.642Z,42.05
2024-04-23T11:58:10.715Z,39.42
2024-04-23T12:03:12.761Z,38.90
2024-04-23T12:08:18.153Z,40.80
2024-04-23T12:13:21.061Z,40.96
2024-04-23T12:18:23.242Z,39.73
2024-04-23T12:23:25.671Z,41.81
2024-04-23T12:28:27.730Z,39.93
2024-04-23T12:33:30.229Z,39.89
2024-04-23T12:38:49.141Z,38.51
2024-04-23T12:43:53.583Z,38.73
2024-04-23T12:48:57.683Z,39.68
2024-04-23T12:54:10.640Z,40.66
2024-04-23T12:59:16.793Z,42.04
2024-04-23T13:04:21.437Z,38.36
2024-04-23T13:09:26.513Z,39.04
2024-04-23T13:14:32.879Z,38.73
2024-04-23T13:19:37.589Z,40.71
2024-04-23T13:24:44.562Z,41.13
2024-04-23T13:29:50.114Z,42.13
2024-04-23T13:34:53.748Z,41.97
2024-04-23T13:40:07.729Z,42.02
2024-04-23T13:45:10.486Z,41.41
2024-04-23T13:50:13.299Z,41.94
2024-04-23T13:55:16.729Z,41.13
2024-04-23T14:00:21.249Z,40.85
2024-04-23T14:05:26.030Z,42.64
2024-04-23T14:10:33.379Z,43.09
2024-04-23T14:15:38.986Z,42.69
2024-04-23T14:20:44.974Z,43.16
2024-04-23T14:25:47.685Z,42.63
2024-04-23T14:30:51.084Z,43.07
2024-04-23T14:35:59.932Z,43.52
2024-04-23T14:41:07.493Z,43.55
2024-04-23T14:46:15.867Z,42.51
2024-04-23T14:51:21.126Z,43.62
2024-04-23T14:56:27.244Z,42.34
2024-04-23T15:01:37.473Z,44.10
2024-04-23T15:06:48.287Z,43.43
2024-04-23T15:11:54.892Z,43.76
2024-04-23T15:17:12.270Z,42.63
2024-04-23T15:22:17.993Z,40.08
2024-04-23T15:27:23.502Z,41.84
2024-04-23T15:32:31.120Z,41.83
2024-04-23T15:37:34.658Z,41.53
2024-04-23T15:42:43.691Z,39.98
2024-04-23T15:47:55.807Z,39.33
2024-04-23T15:53:00.377Z,42.58
2024-04-23T15:58:05.127Z,40.34
2024-04-23T16:03:07.619Z,40.47
2024-04-23T16:08:10.135Z,39.66
2024-04-23T16:13:12.771Z,41.49
2024-04-23T16:18:16.061Z,42.95
2024-04-23T16:23:18.254Z,45.91
2024-04-23T16:28:21.228Z,47.25
2024-04-23T16:33:28.641Z,51.15
2024-04-23T16:38:31.107Z,54.52
2024-04-23T16:43:33.385Z,53.48
2024-04-23T16:48:36.444Z,54.85
2024-04-23T16:53:39.965Z,59.55
2024-04-23T16:58:42.141Z,64.44
2024-04-23T17:03:46.009Z,65.84
2024-04-23T17:08:48.211Z,69.64
2024-04-23T17:13:50.355Z,69.37
2024-04-23T17:18:52.470Z,73.52
2024-04-23T17:23:55.445Z,76.23
2024-04-23T17:29:01.312Z,77.90
2024-04-23T17:34:03.561Z,85.23
2024-04-23T17:39:05.720Z,84.50
2024-04-23T17:44:08.061Z,86.37
2024-04-23T17:49:11.413Z,85.58
2024-04-23T17:54:13.485Z,85.66
2024-04-23T17:59:15.514Z,84.38
2024-04-23T18:04:17.566Z,85.08
2024-04-23T18:09:19.698Z,84.29
2024-04-23T18:14:21.818Z,85.47
2024-04-23T18:19:23.989Z,85.13
2024-04-23T18:24:26.005Z,85.46
2024-04-23T18:29:28.298Z,86.95
2024-04-23T18:34:30.810Z,86.64
2024-04-23T18:39:32.953Z,87.59
2024-04-23T18:44:36.357Z,90.31
2024-04-23T18:49:38.361Z,94.00
2024-04-23T18:54:42.977Z,97.55
2024-04-23T18:59:46.636Z,99.93
2024-04-23T19:04:48.622Z,100.00
2024-04-23T19:09:51.514Z,100.00
2024-04-23T19:14:53.669Z,100.00
2024-04-23T19:19:58.181Z,100.00
2024-04-23T19:25:01.892Z,100.00
2024-04-23T19:30:04.670Z,100.00
2024-04-23T19:35:07.374Z,100.00
2024-04-23T19:40:13.473Z,100.00
2024-04-23T19:45:15.673Z,100.00
2024-04-23T19:50:17.885Z,100.00
2024-04-23T19:55:21.444Z,100.00
2024-04-23T20:00:27.445Z,100.00
2024-04-23T20:05:29.710Z,100.00
2024-04-23T20:10:33.638Z,100.00
2024-04-23T20:15:35.772Z,100.00
2024-04-23T20:20:38.044Z,100.00
2024-04-23T20:25:47.426Z,100.00
2024-04-23T20:30:49.706Z,100.00
2024-04-23T20:35:51.820Z,100.00
2024-04-23T20:40:55.596Z,100.00
2024-04-23T20:45:57.772Z,100.00
2024-04-23T20:51:00.206Z,100.00
2024-04-23T20:56:09.313Z,100.00
2024-04-23T21:01:14.643Z,100.00
2024-04-23T21:06:16.884Z,100.00
2024-04-23T21:11:19.558Z,100.00
2024-04-23T21:16:25.025Z,100.00
2024-04-23T21:21:27.407Z,100.00
2024-04-23T21:26:29.844Z,100.00
2024-04-23T21:31:35.510Z,100.00
2024-04-23T21:36:39.493Z,100.00
2024-04-23T21:41:44.846Z,100.00
2024-04-23T21:46:48.357Z,100.00
2024-04-23T21:52:15.845Z,100.00
2024-04-23T21:57:18.634Z,100.00
2024-04-23T22:02:23.731Z,100.00
2024-04-23T22:07:25.841Z,100.00
2024-04-23T22:12:27.902Z,100.00
2024-04-23T22:17:32.513Z,100.00
2024-04-23T22:22:35.127Z,100.00
2024-04-23T22:27:41.587Z,100.00
2024-04-23T22:32:43.692Z,100.00
2024-04-23T22:37:47.618Z,100.00
2024-04-23T22:42:49.754Z,100.00
2024-04-23T22:47:51.798Z,100.00
2024-04-23T22:52:53.843Z,100.00
2024-04-23T22:57:55.874Z,100.00
2024-04-23T23:02:57.916Z,100.00
2024-04-23T23:07:59.987Z,100.00
2024-04-23T23:13:01.974Z,100.00
2024-04-23T23:18:04.337Z,100.00
2024-04-23T23:23:06.358Z,100.00
2024-04-23T23:28:09.559Z,100.00
2024-04-23T23:33:11.919Z,100.00
2024-04-23T23:38:14.054Z,100.00
2024-04-23T23:43:16.468Z,100.00
2024-04-23T23:48:18.684Z,100.00
2024-04-23T23:53:20.766Z,100.00
2024-04-23T23:58:22.842Z,100.00
